Time;durP1;ratioP1;P1;durP2;ratioP2;P2;SDS_P1;SDS_P2;PMS_P1;PMS_P2;Temp;Humidity;BMP_temperature;BMP_pressure;BME280_temperature;BME280_humidity;BME280_pressure;Samples;Min_cycle;Max_cycle;Signal;HPM_P1;HPM_P2
2022/10/08 00:00:56;;;;;;;39.58;23.70;;;13.50;1.00;;;;;;6174935;23;20036;-91
2022/10/08 00:03:46;;;;;;;33.92;23.00;;;13.40;99.90;;;;;;6175871;23;20021;-92
2022/10/08 00:06:42;;;;;;;33.92;24.15;;;13.40;1.00;;;;;;6173804;23;20029;-94
2022/10/08 00:09:30;;;;;;;35.53;23.02;;;13.30;1.00;;;;;;6170681;23;20496;-93
2022/10/08 00:12:17;;;;;;;34.83;23.48;;;13.20;1.00;;;;;;6166834;23;20024;-94
2022/10/08 00:15:05;;;;;;;33.42;24.25;;;13.20;99.90;;;;;;6189639;23;20049;-91
2022/10/08 00:17:53;;;;;;;41.20;23.92;;;13.20;99.90;;;;;;6167722;23;20052;-91
2022/10/08 00:20:43;;;;;;;36.45;23.95;;;13.20;99.90;;;;;;6168114;23;20050;-92
2022/10/08 00:23:32;;;;;;;37.13;23.67;;;13.20;99.90;;;;;;6166030;23;20080;-93
2022/10/08 00:26:25;;;;;;;34.65;23.70;;;13.20;99.90;;;;;;6166591;23;20039;-93
2022/10/08 00:29:18;;;;;;;33.67;22.58;;;13.10;99.90;;;;;;6169422;23;20346;-91
2022/10/08 00:32:06;;;;;;;40.50;23.77;;;13.10;1.00;;;;;;6205014;23;20152;-90
2022/10/08 00:34:53;;;;;;;33.55;22.73;;;13.10;1.00;;;;;;6175542;23;20049;-89
2022/10/08 00:37:46;;;;;;;34.42;22.92;;;13.10;1.00;;;;;;6167124;23;20036;-90
2022/10/08 00:40:44;;;;;;;31.20;22.90;;;13.10;1.00;;;;;;6166242;23;20103;-91
2022/10/08 00:43:47;;;;;;;41.95;22.80;;;13.00;1.00;;;;;;6165766;23;20329;-90
2022/10/08 00:46:40;;;;;;;34.35;24.80;;;12.90;99.90;;;;;;6166505;23;20104;-93
2022/10/08 00:49:31;;;;;;;36.72;23.15;;;13.00;99.90;;;;;;6167697;23;20033;-92
2022/10/08 00:52:20;;;;;;;34.92;22.58;;;13.10;99.90;;;;;;6166671;23;20297;-93
2022/10/08 00:55:09;;;;;;;41.85;23.42;;;13.10;99.90;;;;;;6191035;23;20036;-92
2022/10/08 00:58:01;;;;;;;34.50;23.10;;;13.20;1.00;;;;;;6167450;23;20064;-93
2022/10/08 01:01:13;;;;;;;36.28;22.70;;;13.10;1.00;;;;;;6176083;23;20020;-92
2022/10/08 01:04:06;;;;;;;31.30;22.38;;;13.10;1.00;;;;;;6171079;23;20025;-91
2022/10/08 01:07:14;;;;;;;31.23;21.65;;;13.10;1.00;;;;;;6192730;23;20432;-92
2022/10/08 01:10:38;;;;;;;36.38;22.05;;;13.10;1.00;;;;;;6170227;23;20053;-92
2022/10/08 01:13:52;;;;;;;37.13;22.27;;;13.10;91.90;;;;;;6174146;23;20448;-93
2022/10/08 01:16:53;;;;;;;41.38;23.90;;;13.00;99.90;;;;;;6187782;23;20017;-93
2022/10/08 01:20:03;;;;;;;35.63;22.63;;;13.00;99.90;;;;;;6167213;23;20441;-92
2022/10/08 01:23:11;;;;;;;35.78;22.77;;;13.00;99.90;;;;;;6167603;23;20121;-92
2022/10/08 01:26:21;;;;;;;33.53;23.73;;;13.10;99.90;;;;;;6167345;23;20024;-93
2022/10/08 01:29:33;;;;;;;30.98;22.92;;;13.10;99.90;;;;;;6169699;23;20107;-91
2022/10/08 01:32:27;;;;;;;32.45;22.95;;;13.10;99.90;;;;;;6165897;23;20016;-92
2022/10/08 01:35:23;;;;;;;39.95;22.95;;;13.20;99.90;;;;;;6186913;23;20036;-93
2022/10/08 01:38:16;;;;;;;38.53;23.00;;;13.20;1.00;;;;;;6167195;23;20021;-93
2022/10/08 01:44:35;;;;;;;30.98;20.58;;;13.30;99.90;;;;;;6181969;23;19916;-94
2022/10/08 01:47:27;;;;;;;34.42;20.80;;;13.30;99.90;;;;;;6188599;23;20079;-91
2022/10/08 01:50:31;;;;;;;33.08;20.17;;;13.40;52.40;;;;;;6167578;23;20111;-91
2022/10/08 01:53:22;;;;;;;31.40;18.55;;;13.40;1.00;;;;;;6187814;23;20021;-91
2022/10/08 01:56:13;;;;;;;32.08;19.02;;;13.40;1.00;;;;;;6145994;23;20032;-90
2022/10/08 01:59:07;;;;;;;23.85;17.88;;;13.30;1.00;;;;;;6189953;23;20033;-92
2022/10/08 02:01:58;;;;;;;31.15;18.10;;;13.40;99.90;;;;;;6187984;23;20021;-92
2022/10/08 02:04:48;;;;;;;31.02;17.58;;;13.40;99.90;;;;;;6188485;23;20031;-90
2022/10/08 02:07:41;;;;;;;24.95;18.00;;;13.40;99.90;;;;;;6164809;23;20080;-91
2022/10/08 02:10:29;;;;;;;30.65;17.98;;;13.40;99.90;;;;;;6188673;23;20114;-93
2022/10/08 02:13:19;;;;;;;32.92;17.48;;;13.40;99.90;;;;;;6167857;23;20033;-91
2022/10/08 02:16:16;;;;;;;26.83;16.92;;;13.40;99.90;;;;;;6187866;23;20040;-92
2022/10/08 02:19:18;;;;;;;28.95;17.45;;;13.30;99.90;;;;;;6187548;23;20148;-92
2022/10/08 02:22:06;;;;;;;28.58;17.48;;;13.30;99.90;;;;;;6167087;23;20032;-91
2022/10/08 02:25:12;;;;;;;27.77;16.85;;;13.30;99.90;;;;;;6164348;23;20065;-91
2022/10/08 02:28:25;;;;;;;32.15;16.38;;;13.30;99.90;;;;;;6188632;23;20445;-91
2022/10/08 02:31:40;;;;;;;30.88;16.73;;;13.30;99.90;;;;;;6168081;23;20108;-93
2022/10/08 02:34:42;;;;;;;22.00;14.88;;;13.30;99.90;;;;;;6170595;23;20021;-91
2022/10/08 02:37:46;;;;;;;28.02;17.50;;;13.30;99.90;;;;;;6180799;23;20052;-91
2022/10/08 02:40:37;;;;;;;27.05;16.15;;;13.20;99.90;;;;;;6181095;23;20052;-91
2022/10/08 02:43:30;;;;;;;32.00;16.35;;;13.20;99.90;;;;;;6183480;23;20060;-91
2022/10/08 02:46:22;;;;;;;23.45;15.27;;;13.20;99.90;;;;;;6189740;23;20029;-92
2022/10/08 02:49:34;;;;;;;25.77;14.77;;;13.20;99.90;;;;;;6178058;23;20113;-93
2022/10/08 02:52:26;;;;;;;30.02;16.27;;;13.20;99.90;;;;;;6190579;23;20092;-91
2022/10/08 02:55:56;;;;;;;26.35;16.10;;;13.20;99.90;;;;;;6167282;23;20102;-93
2022/10/08 02:58:44;;;;;;;28.00;16.17;;;13.20;99.90;;;;;;6050648;23;20054;-91
2022/10/08 03:01:47;;;;;;;27.55;16.85;;;13.20;99.90;;;;;;6052359;23;20039;-93
2022/10/08 03:04:56;;;;;;;23.50;15.73;;;13.10;99.90;;;;;;6192892;23;20120;-93
2022/10/08 03:07:44;;;;;;;27.30;15.20;;;13.20;99.90;;;;;;6195894;23;20025;-92
2022/10/08 03:10:35;;;;;;;24.17;14.93;;;13.10;99.90;;;;;;6169212;23;20036;-93
2022/10/08 03:13:23;;;;;;;26.50;16.50;;;13.10;99.90;;;;;;6190350;23;20021;-93
2022/10/08 03:16:26;;;;;;;29.63;16.40;;;13.00;1.00;;;;;;6170714;23;20096;-90
2022/10/08 03:19:19;;;;;;;22.85;14.65;;;13.00;1.00;;;;;;6174704;23;20025;-95
2022/10/08 03:22:21;;;;;;;21.92;16.33;;;12.90;1.00;;;;;;6185828;23;20025;-91
2022/10/08 03:25:09;;;;;;;26.92;15.98;;;12.90;99.90;;;;;;6188813;23;20021;-91
2022/10/08 03:27:56;;;;;;;35.00;17.15;;;12.80;99.90;;;;;;6167831;23;20341;-90
2022/10/08 03:30:44;;;;;;;32.03;16.85;;;12.80;1.00;;;;;;6168001;23;20021;-94
2022/10/08 03:33:32;;;;;;;34.75;17.75;;;12.80;99.90;;;;;;6165468;23;20021;-91
2022/10/08 03:36:21;;;;;;;28.58;16.63;;;12.70;99.90;;;;;;6169132;23;20103;-93
2022/10/08 03:39:10;;;;;;;24.63;16.50;;;12.70;99.90;;;;;;6175877;23;20029;-91
2022/10/08 03:41:58;;;;;;;32.75;16.15;;;12.60;1.00;;;;;;6175959;23;20043;-89
2022/10/08 03:44:45;;;;;;;30.85;19.40;;;12.50;3.10;;;;;;6183408;23;20029;-90
2022/10/08 03:47:33;;;;;;;28.08;18.50;;;12.40;99.90;;;;;;6203678;23;20340;-91
2022/10/08 03:50:21;;;;;;;27.77;17.92;;;12.40;99.90;;;;;;6176416;23;20056;-91
2022/10/08 03:53:08;;;;;;;30.42;18.75;;;12.40;1.00;;;;;;6176972;23;20072;-90
2022/10/08 03:55:59;;;;;;;31.27;18.88;;;12.40;99.90;;;;;;6198225;23;20099;-91
2022/10/08 03:58:51;;;;;;;26.90;19.27;;;12.40;99.90;;;;;;6173899;23;20067;-91
2022/10/08 04:01:40;;;;;;;25.33;18.15;;;12.30;1.00;;;;;;6198573;23;20040;-90
2022/10/08 04:04:28;;;;;;;33.17;18.70;;;12.30;99.90;;;;;;6173733;23;20040;-90
2022/10/08 04:07:16;;;;;;;35.42;19.23;;;12.30;1.00;;;;;;6193807;23;20029;-91
2022/10/08 04:10:04;;;;;;;34.45;19.83;;;12.30;99.90;;;;;;6174625;23;20328;-91
2022/10/08 04:12:51;;;;;;;33.67;20.70;;;12.30;99.90;;;;;;6180641;23;20024;-90
2022/10/08 04:15:39;;;;;;;32.30;20.58;;;12.30;1.00;;;;;;6196265;23;20112;-91
2022/10/08 04:18:26;;;;;;;31.65;20.55;;;12.30;30.90;;;;;;6195523;23;20025;-90
2022/10/08 04:21:18;;;;;;;33.85;20.75;;;12.30;45.10;;;;;;6181023;23;20059;-92
2022/10/08 04:24:07;;;;;;;36.37;22.03;;;12.30;64.10;;;;;;6179216;23;20029;-91
2022/10/08 04:26:55;;;;;;;40.25;21.45;;;12.30;99.90;;;;;;6181521;23;20025;-91
2022/10/08 04:29:42;;;;;;;47.70;22.30;;;12.30;99.90;;;;;;6178489;23;20052;-90
2022/10/08 04:32:31;;;;;;;36.20;22.40;;;12.30;99.90;;;;;;6188274;23;20389;-92
2022/10/08 04:35:18;;;;;;;32.53;21.00;;;12.30;99.90;;;;;;6165478;23;20021;-90
2022/10/08 04:38:05;;;;;;;36.47;21.02;;;12.30;99.90;;;;;;6188522;23;20025;-92
2022/10/08 04:41:11;;;;;;;40.30;20.85;;;12.20;99.90;;;;;;6165895;23;20032;-91
2022/10/08 04:44:01;;;;;;;32.85;20.55;;;12.10;99.90;;;;;;6168697;23;20504;-91
2022/10/08 04:46:49;;;;;;;40.63;20.25;;;12.00;99.90;;;;;;6149985;23;20298;-91
2022/10/08 04:49:37;;;;;;;32.92;20.48;;;11.90;99.90;;;;;;6165638;23;20100;-91
2022/10/08 04:52:25;;;;;;;31.92;21.25;;;11.90;99.90;;;;;;6154808;23;20067;-89
2022/10/08 04:55:12;;;;;;;33.13;21.15;;;11.90;1.00;;;;;;6176945;23;20032;-89
2022/10/08 04:58:05;;;;;;;38.17;19.08;;;11.90;1.00;;;;;;6174309;23;20107;-90
2022/10/08 05:00:52;;;;;;;;;;;12.00;25.40;;;;;;6197072;23;20495;-90
2022/10/08 05:03:46;;;;;;;33.42;19.00;;;12.10;76.80;;;;;;6171183;23;20299;-91
2022/10/08 05:06:33;;;;;;;31.63;19.05;;;12.20;98.20;;;;;;6192713;23;20131;-90
2022/10/08 05:09:22;;;;;;;35.42;19.40;;;12.20;99.90;;;;;;6165860;23;20029;-91
2022/10/08 05:12:10;;;;;;;25.90;18.17;;;12.20;99.90;;;;;;6188324;23;20025;-89
2022/10/08 05:15:00;;;;;;;28.88;16.90;;;12.10;99.90;;;;;;6165867;23;20416;-91
2022/10/08 05:17:48;;;;;;;28.65;18.92;;;12.10;99.90;;;;;;6185010;23;20021;-90
2022/10/08 05:20:36;;;;;;;29.65;18.33;;;12.20;99.90;;;;;;6166561;23;20036;-91
2022/10/08 05:23:23;;;;;;;30.15;18.45;;;12.20;99.90;;;;;;6188390;23;20028;-93
2022/10/08 05:26:29;;;;;;;33.03;18.55;;;12.20;99.90;;;;;;6189109;23;20036;-89
2022/10/08 05:29:39;;;;;;;26.65;18.15;;;12.30;99.90;;;;;;6170161;23;20135;-89
2022/10/08 05:32:27;;;;;;;31.38;17.88;;;12.20;99.90;;;;;;6165372;23;20033;-90
2022/10/08 05:35:15;;;;;;;33.30;17.48;;;12.20;99.90;;;;;;6166621;23;20483;-92
2022/10/08 05:38:04;;;;;;;25.75;15.73;;;12.10;99.90;;;;;;6188694;23;20101;-90
2022/10/08 05:40:54;;;;;;;26.92;16.63;;;12.00;99.90;;;;;;6168044;23;20033;-90
2022/10/08 05:43:44;;;;;;;24.23;15.32;;;11.90;99.90;;;;;;6167983;23;20025;-91
2022/10/08 05:46:33;;;;;;;38.10;16.63;;;11.80;99.90;;;;;;6186414;23;20033;-93
2022/10/08 05:49:22;;;;;;;24.75;15.63;;;11.70;99.90;;;;;;6187525;23;20029;-88
2022/10/08 05:52:09;;;;;;;27.98;17.40;;;11.70;99.90;;;;;;6168405;23;20108;-93
2022/10/08 05:54:56;;;;;;;24.80;17.17;;;11.70;99.90;;;;;;6167686;23;20021;-94
2022/10/08 05:57:49;;;;;;;37.78;18.02;;;11.70;99.90;;;;;;6169029;23;20104;-93
2022/10/08 06:00:36;;;;;;;33.75;20.55;;;11.70;99.90;;;;;;6191259;23;20021;-89
2022/10/08 06:03:23;;;;;;;36.08;21.17;;;11.70;99.90;;;;;;6182218;23;20036;-92
2022/10/08 06:06:21;;;;;;;34.80;20.50;;;11.70;99.90;;;;;;6181805;23;20091;-93
2022/10/08 06:09:16;;;;;;;32.78;20.45;;;11.60;99.90;;;;;;6206393;23;20076;-85
2022/10/08 06:12:08;;;;;;;30.63;21.25;;;11.60;99.90;;;;;;6184878;23;20031;-94
2022/10/08 06:14:58;;;;;;;40.28;23.77;;;11.60;99.90;;;;;;6179401;23;20017;-92
2022/10/08 06:17:49;;;;;;;44.28;24.15;;;11.70;99.90;;;;;;6204385;23;20056;-91
2022/10/08 06:20:39;;;;;;;42.20;26.08;;;11.70;99.90;;;;;;6185946;23;20080;-92
2022/10/08 06:23:28;;;;;;;45.00;26.42;;;11.70;99.90;;;;;;6186772;23;20079;-93
2022/10/08 06:26:28;;;;;;;;;;;;;;;;;;;;;
2022/10/08 06:29:26;;;;;;;36.05;26.90;;;11.70;99.90;;;;;;6195091;23;20025;-94
2022/10/08 06:32:20;;;;;;;44.35;26.88;;;11.80;99.90;;;;;;6171102;23;20029;-93
2022/10/08 06:35:14;;;;;;;42.80;27.15;;;11.80;99.90;;;;;;6189487;23;20104;-91
2022/10/08 06:38:03;;;;;;;43.95;27.73;;;11.80;99.90;;;;;;6166529;23;20052;-89
2022/10/08 06:40:51;;;;;;;39.72;25.30;;;11.90;99.90;;;;;;6188797;23;20052;-89
2022/10/08 06:43:38;;;;;;;47.83;27.75;;;12.00;99.90;;;;;;6166949;23;20096;-88
2022/10/08 06:46:25;;;;;;;47.90;27.42;;;12.10;99.90;;;;;;6171548;23;20088;-91
2022/10/08 06:49:25;;;;;;;42.78;26.60;;;12.20;99.90;;;;;;6169704;23;20024;-91
2022/10/08 06:52:26;;;;;;;41.15;25.52;;;12.30;99.90;;;;;;6194759;23;20025;-91
2022/10/08 06:55:21;;;;;;;39.72;23.85;;;12.30;99.90;;;;;;6171837;23;20100;-93
2022/10/08 06:58:08;;;;;;;31.92;22.17;;;12.50;99.90;;;;;;6187904;23;20021;-89
2022/10/08 07:01:20;;;;;;;37.08;20.45;;;12.60;99.90;;;;;;6188252;23;20029;-90
2022/10/08 07:04:10;;;;;;;29.27;19.30;;;12.70;49.80;;;;;;6189634;23;20024;-90
2022/10/08 07:06:59;;;;;;;34.22;18.25;;;12.80;99.90;;;;;;6170086;23;20670;-88
2022/10/08 07:09:48;;;;;;;26.85;17.00;;;12.90;23.80;;;;;;6169546;23;20025;-91
2022/10/08 07:12:36;;;;;;;33.22;18.13;;;12.90;1.00;;;;;;6189895;23;20329;-91
2022/10/08 07:15:23;;;;;;;26.58;15.27;;;13.00;99.90;;;;;;6187284;23;20032;-90
2022/10/08 07:18:11;;;;;;;25.67;14.02;;;13.10;95.50;;;;;;6192142;23;20083;-89
2022/10/08 07:20:59;;;;;;;24.40;14.70;;;13.30;99.90;;;;;;6196954;23;20091;-89
2022/10/08 07:23:49;;;;;;;26.52;13.35;;;13.40;1.00;;;;;;6173146;23;20029;-89
2022/10/08 07:26:39;;;;;;;21.38;12.80;;;13.50;93.50;;;;;;6187543;23;20107;-89
2022/10/08 07:29:26;;;;;;;22.70;12.82;;;13.60;99.90;;;;;;6202562;23;20025;-93
2022/10/08 07:32:14;;;;;;;22.13;11.55;;;13.80;99.90;;;;;;6210253;23;20076;-91
2022/10/08 07:35:03;;;;;;;19.63;10.27;;;14.10;1.00;;;;;;6187864;23;20031;-92
2022/10/08 07:37:50;;;;;;;18.17;10.18;;;14.20;99.90;;;;;;6203355;23;20080;-91
2022/10/08 07:40:40;;;;;;;19.67;10.18;;;14.40;99.90;;;;;;6208790;23;20041;-89
2022/10/08 07:43:34;;;;;;;19.48;8.65;;;14.40;1.00;;;;;;6212063;23;20024;-87
2022/10/08 07:46:22;;;;;;;13.68;6.63;;;14.40;99.90;;;;;;6214350;23;20029;-86
2022/10/08 07:49:09;;;;;;;13.65;6.28;;;14.60;99.90;;;;;;6210241;23;20021;-88
2022/10/08 07:51:57;;;;;;;12.68;6.50;;;14.90;99.90;;;;;;6207958;23;20021;-90
2022/10/08 07:54:46;;;;;;;15.23;5.80;;;15.50;85.40;;;;;;6185941;23;20044;-88
2022/10/08 07:57:42;;;;;;;12.20;4.57;;;16.10;1.00;;;;;;6188335;23;20057;-89
2022/10/08 08:00:29;;;;;;;12.23;5.20;;;16.50;1.00;;;;;;6210601;23;20308;-90
2022/10/08 08:03:16;;;;;;;9.05;4.25;;;17.00;99.90;;;;;;6181226;23;20089;-90
2022/10/08 08:06:11;;;;;;;17.05;4.68;;;17.10;99.90;;;;;;6178193;23;20025;-88
2022/10/08 08:08:59;;;;;;;8.63;3.40;;;17.30;99.90;;;;;;6179038;23;20063;-90
2022/10/08 08:11:50;;;;;;;6.57;3.30;;;17.30;99.90;;;;;;6174924;23;20045;-92
2022/10/08 08:14:37;;;;;;;10.85;3.30;;;17.50;99.90;;;;;;6160615;23;20047;-91
2022/10/08 08:17:26;;;;;;;9.40;3.30;;;17.40;99.90;;;;;;6158484;23;20033;-90
2022/10/08 08:20:15;;;;;;;11.00;2.80;;;17.50;99.90;;;;;;6156480;23;20025;-90
2022/10/08 08:23:03;;;;;;;10.18;3.35;;;17.20;99.90;;;;;;6138328;23;20021;-91
2022/10/08 08:25:50;;;;;;;13.98;3.67;;;17.20;99.90;;;;;;6157792;23;20061;-88
2022/10/08 08:28:39;;;;;;;8.93;4.00;;;17.30;99.90;;;;;;6136097;23;20119;-90
2022/10/08 08:31:31;;;;;;;17.90;4.18;;;17.20;99.90;;;;;;6158681;23;20082;-91
2022/10/08 08:34:21;;;;;;;9.23;3.60;;;17.10;99.90;;;;;;6135977;23;20022;-89
2022/10/08 08:37:08;;;;;;;10.43;3.75;;;17.10;99.90;;;;;;6157455;23;20441;-91
2022/10/08 08:39:55;;;;;;;15.18;4.38;;;17.00;99.90;;;;;;6158174;23;20036;-90
2022/10/08 08:42:52;;;;;;;11.15;3.35;;;16.80;99.90;;;;;;6135886;23;20466;-89
2022/10/08 08:45:41;;;;;;;12.07;3.65;;;16.80;99.90;;;;;;6156292;23;20033;-89
2022/10/08 08:48:36;;;;;;;14.48;3.63;;;16.90;99.90;;;;;;6159293;23;20025;-90
2022/10/08 08:51:24;;;;;;;11.80;3.40;;;17.00;99.90;;;;;;6137059;23;20500;-90
2022/10/08 08:54:11;;;;;;;11.13;3.30;;;17.20;99.90;;;;;;6158434;23;20022;-94
2022/10/08 08:57:20;;;;;;;10.15;3.60;;;17.30;99.90;;;;;;6158640;23;20026;-89
2022/10/08 09:00:17;;;;;;;11.10;3.78;;;17.40;99.90;;;;;;6159545;23;20096;-89
2022/10/08 09:03:17;;;;;;;11.07;3.40;;;17.70;99.90;;;;;;6142123;23;20029;-91
2022/10/08 09:06:13;;;;;;;10.98;3.22;;;17.90;99.90;;;;;;6150501;23;20066;-92
2022/10/08 09:09:14;;;;;;;8.02;3.05;;;18.20;99.90;;;;;;6177334;23;20025;-92
2022/10/08 09:12:14;;;;;;;11.02;3.45;;;18.80;99.90;;;;;;6164409;23;20101;-94
2022/10/08 09:15:34;;;;;;;9.93;2.90;;;19.10;99.90;;;;;;6190531;23;20021;-91
2022/10/08 09:18:22;;;;;;;8.48;3.03;;;19.50;99.90;;;;;;6167108;23;20132;-90
2022/10/08 09:21:09;;;;;;;7.53;2.17;;;19.70;99.90;;;;;;6189615;23;20426;-92
2022/10/08 09:23:59;;;;;;;9.15;2.70;;;19.50;99.90;;;;;;6195714;23;20182;-91
2022/10/08 09:26:46;;;;;;;8.40;2.35;;;19.00;98.00;;;;;;6195208;23;20028;-91
2022/10/08 09:29:34;;;;;;;6.85;2.58;;;18.50;99.90;;;;;;6193803;23;20021;-90
2022/10/08 09:32:21;;;;;;;7.88;2.22;;;19.70;99.90;;;;;;6193003;23;20071;-89
2022/10/08 09:35:11;;;;;;;12.35;2.55;;;21.00;89.10;;;;;;6190956;23;20033;-89
2022/10/08 09:37:59;;;;;;;4.53;2.08;;;22.20;56.00;;;;;;6167906;23;20052;-90
2022/10/08 09:41:09;;;;;;;9.73;1.65;;;23.10;24.10;;;;;;6193066;23;20020;-91
2022/10/08 09:44:21;;;;;;;13.68;2.30;;;23.00;10.40;;;;;;6169693;23;20076;-89
2022/10/08 09:47:22;;;;;;;5.53;1.90;;;22.70;5.50;;;;;;6169170;23;20063;-92
2022/10/08 09:50:19;;;;;;;8.95;2.10;;;22.70;1.00;;;;;;6188147;23;20114;-92
2022/10/08 09:53:09;;;;;;;7.13;2.13;;;22.90;1.00;;;;;;6169154;23;20425;-87
2022/10/08 09:56:05;;;;;;;7.93;1.80;;;22.50;1.00;;;;;;6167090;23;20110;-93
2022/10/08 09:58:59;;;;;;;5.32;1.90;;;21.50;1.00;;;;;;6189893;23;20025;-89
2022/10/08 10:01:47;;;;;;;8.13;1.60;;;21.30;1.00;;;;;;6190157;23;20025;-92
2022/10/08 10:04:39;;;;;;;7.32;2.33;;;21.10;1.00;;;;;;6168711;23;20333;-89
2022/10/08 10:07:56;;;;;;;7.28;1.88;;;21.00;1.00;;;;;;6192701;23;20040;-90
2022/10/08 10:10:45;;;;;;;9.25;2.20;;;21.10;1.00;;;;;;6160382;23;20058;-90
2022/10/08 10:13:36;;;;;;;12.85;2.15;;;21.10;1.00;;;;;;6168193;23;20036;-91
2022/10/08 10:16:44;;;;;;;6.20;1.90;;;22.10;1.00;;;;;;6190435;23;20017;-92
2022/10/08 10:19:40;;;;;;;8.38;2.08;;;22.80;1.00;;;;;;6169620;23;20328;-90
2022/10/08 10:22:45;;;;;;;9.88;1.92;;;23.00;1.00;;;;;;6193973;23;20115;-92
2022/10/08 10:25:53;;;;;;;4.72;1.85;;;23.00;1.00;;;;;;6172510;23;20036;-92
2022/10/08 10:28:55;;;;;;;7.75;1.95;;;23.30;1.00;;;;;;6171670;23;20048;-92
2022/10/08 10:32:01;;;;;;;6.15;1.48;;;24.30;1.00;;;;;;6186613;23;20097;-91
2022/10/08 10:34:59;;;;;;;8.27;2.35;;;24.50;1.00;;;;;;6173967;23;20080;-91
2022/10/08 10:37:52;;;;;;;10.73;2.30;;;22.30;1.00;;;;;;6198966;23;20025;-91
2022/10/08 10:40:58;;;;;;;;;;;21.50;1.00;;;;;;6198114;23;20111;-92
2022/10/08 10:43:53;;;;;;;11.38;2.80;;;20.90;1.00;;;;;;6174732;23;20267;-91
2022/10/08 10:47:01;;;;;;;10.80;2.45;;;20.20;1.00;;;;;;6179003;23;20036;-92
2022/10/08 10:49:50;;;;;;;7.88;2.25;;;19.90;1.00;;;;;;6200155;23;20025;-91
2022/10/08 10:52:40;;;;;;;7.65;2.15;;;21.20;1.00;;;;;;6177371;23;20084;-93
2022/10/08 10:55:53;;;;;;;14.27;2.53;;;21.70;1.00;;;;;;6191664;23;20414;-93
2022/10/08 10:59:19;;;;;;;12.75;3.15;;;21.40;1.00;;;;;;6193477;23;20021;-92
2022/10/08 11:02:41;;;;;;;5.30;1.85;;;21.60;1.00;;;;;;6170441;23;20040;-91
2022/10/08 11:05:33;;;;;;;7.45;2.25;;;22.50;1.00;;;;;;6172718;23;20029;-90
2022/10/08 11:08:54;;;;;;;12.20;2.30;;;23.60;1.00;;;;;;6195208;23;20091;-92
2022/10/08 11:11:51;;;;;;;9.40;2.13;;;22.80;1.00;;;;;;6194985;23;20424;-92
2022/10/08 11:15:02;;;;;;;9.77;2.15;;;23.50;1.00;;;;;;6141318;23;20358;-93
2022/10/08 11:18:31;;;;;;;9.88;2.20;;;24.70;1.00;;;;;;6162547;23;20041;-92
2022/10/08 11:21:24;;;;;;;8.55;2.53;;;24.10;1.00;;;;;;6162806;23;20025;-91
2022/10/08 11:24:23;;;;;;;13.15;2.90;;;24.80;1.00;;;;;;6165051;23;20026;-92
2022/10/08 11:27:19;;;;;;;8.85;2.72;;;24.70;1.00;;;;;;6148064;23;20061;-92
2022/10/08 11:30:07;;;;;;;9.30;2.55;;;25.40;1.00;;;;;;6166771;23;20069;-91
2022/10/08 11:32:57;;;;;;;8.52;1.80;;;26.10;1.00;;;;;;6169733;23;20113;-89
2022/10/08 11:36:22;;;;;;;13.05;2.30;;;25.90;1.00;;;;;;6176742;23;20034;-91
2022/10/08 11:39:19;;;;;;;12.40;3.85;;;25.60;1.00;;;;;;6026587;23;20051;-91
2022/10/08 11:42:33;;;;;;;24.63;5.70;;;25.70;1.00;;;;;;6022098;23;20036;-91
2022/10/08 11:45:38;;;;;;;11.27;2.78;;;26.80;1.00;;;;;;6161088;23;20436;-90
2022/10/08 11:48:35;;;;;;;6.53;1.90;;;26.80;1.00;;;;;;6162009;23;20079;-91
2022/10/08 11:51:22;;;;;;;6.68;1.98;;;26.70;1.00;;;;;;6145763;23;20437;-90
2022/10/08 11:54:30;;;;;;;6.13;1.98;;;25.70;1.00;;;;;;6175411;23;20105;-88
2022/10/08 11:57:23;;;;;;;7.57;2.28;;;25.70;1.00;;;;;;6174823;23;20036;-92
2022/10/08 12:00:41;;;;;;;8.07;1.95;;;25.80;1.00;;;;;;6143520;23;20025;-91
2022/10/08 12:03:35;;;;;;;7.60;1.80;;;24.80;1.00;;;;;;6162183;23;20053;-91
2022/10/08 12:06:28;;;;;;;5.65;2.00;;;24.10;1.00;;;;;;6161630;23;20021;-92
2022/10/08 12:09:23;;;;;;;12.65;2.00;;;22.90;1.00;;;;;;6161717;23;20026;-91
2022/10/08 12:12:16;;;;;;;11.38;2.08;;;22.20;1.00;;;;;;6144752;23;20029;-91
2022/10/08 12:15:23;;;;;;;12.88;2.35;;;22.00;1.00;;;;;;6195259;23;20033;-89
2022/10/08 12:18:16;;;;;;;4.70;1.73;;;22.70;1.00;;;;;;6197740;23;20028;-91
2022/10/08 12:21:16;;;;;;;7.07;2.20;;;23.10;1.00;;;;;;6206574;23;20056;-90
2022/10/08 12:24:35;;;;;;;7.30;1.80;;;22.80;1.00;;;;;;6198964;23;20405;-90
2022/10/08 12:27:36;;;;;;;9.35;1.98;;;22.60;1.00;;;;;;6196489;23;20079;-92
2022/10/08 12:30:49;;;;;;;6.22;1.50;;;23.20;1.00;;;;;;6174753;23;20080;-91
2022/10/08 12:33:36;;;;;;;6.28;1.70;;;24.10;1.00;;;;;;6169541;23;20033;-91
2022/10/08 12:36:40;;;;;;;5.80;1.90;;;23.70;1.00;;;;;;6191786;23;20101;-92
2022/10/08 12:39:35;;;;;;;10.43;1.80;;;23.70;1.00;;;;;;6191225;23;20025;-91
2022/10/08 12:42:31;;;;;;;4.43;1.50;;;24.60;1.00;;;;;;6193283;23;20099;-90
2022/10/08 12:45:33;;;;;;;8.00;1.40;;;25.20;1.00;;;;;;6177512;23;20096;-92
2022/10/08 12:48:41;;;;;;;6.00;1.67;;;25.20;1.00;;;;;;6189240;23;20108;-92
2022/10/08 12:51:47;;;;;;;;;;;25.20;1.00;;;;;;6176316;23;20075;-92
2022/10/08 12:54:40;;;;;;;6.43;2.00;;;25.80;1.00;;;;;;6196148;23;19947;-91
2022/10/08 12:57:39;;;;;;;14.32;2.38;;;26.30;1.00;;;;;;6172830;23;20329;-93
2022/10/08 13:00:35;;;;;;;11.15;1.88;;;26.60;1.00;;;;;;6171449;23;20083;-92
2022/10/08 13:03:25;;;;;;;8.13;2.00;;;25.70;1.00;;;;;;6181217;23;20025;-91
2022/10/08 13:06:28;;;;;;;6.10;1.67;;;26.40;1.00;;;;;;6198475;23;20025;-92
2022/10/08 13:09:51;;;;;;;11.02;1.98;;;26.90;1.00;;;;;;6178675;23;20052;-92
2022/10/08 13:12:39;;;;;;;8.10;1.80;;;26.80;1.00;;;;;;6197695;23;20388;-92
2022/10/08 13:15:26;;;;;;;5.95;1.60;;;26.70;1.00;;;;;;6172311;23;20052;-91
2022/10/08 13:18:20;;;;;;;8.00;1.80;;;24.70;1.00;;;;;;6188504;23;20021;-91
2022/10/08 13:21:29;;;;;;;6.55;1.83;;;24.60;1.00;;;;;;6167728;23;20361;-92
2022/10/08 13:24:16;;;;;;;9.18;2.13;;;24.30;1.00;;;;;;6190386;23;20101;-90
2022/10/08 13:27:05;;;;;;;10.35;2.22;;;24.80;1.00;;;;;;6193695;23;20031;-90
2022/10/08 13:29:54;;;;;;;7.55;1.85;;;25.60;1.00;;;;;;6173166;23;20092;-92
2022/10/08 13:32:42;;;;;;;8.20;2.05;;;26.10;1.00;;;;;;6192512;23;20024;-92
2022/10/08 13:35:31;;;;;;;8.02;2.05;;;26.80;1.00;;;;;;6172683;23;20112;-92
2022/10/08 13:38:28;;;;;;;4.80;1.50;;;27.10;1.00;;;;;;6194531;23;20100;-92
2022/10/08 13:41:22;;;;;;;9.60;1.85;;;26.80;1.00;;;;;;6170736;23;20032;-94
2022/10/08 13:44:10;;;;;;;5.85;1.80;;;26.30;1.00;;;;;;6174580;23;20057;-91
2022/10/08 13:47:01;;;;;;;8.23;1.60;;;25.90;1.00;;;;;;6201700;23;20481;-93
2022/10/08 13:50:00;;;;;;;5.10;1.50;;;25.90;1.00;;;;;;6200126;23;20025;-90
2022/10/08 13:52:54;;;;;;;5.82;1.65;;;25.20;1.00;;;;;;6197509;23;20025;-92
2022/10/08 13:55:44;;;;;;;5.85;1.27;;;25.70;1.00;;;;;;6176011;23;20056;-91
2022/10/08 13:58:33;;;;;;;4.30;1.25;;;26.30;1.00;;;;;;6171843;23;20085;-92
2022/10/08 14:01:21;;;;;;;5.88;1.35;;;26.90;1.00;;;;;;6170529;23;20048;-92
2022/10/08 14:04:13;;;;;;;2.92;1.00;;;27.10;1.00;;;;;;6176418;23;20044;-91
2022/10/08 14:07:01;;;;;;;3.80;1.25;;;26.70;1.00;;;;;;6173741;23;20096;-92
2022/10/08 14:10:18;;;;;;;5.97;1.15;;;27.40;1.00;;;;;;6179946;23;20063;-93
2022/10/08 14:13:06;;;;;;;5.13;1.45;;;26.70;1.00;;;;;;6195608;23;20025;-93
2022/10/08 14:15:59;;;;;;;10.50;1.85;;;26.50;1.00;;;;;;6201271;23;20017;-93
2022/10/08 14:18:47;;;;;;;5.57;1.40;;;27.10;1.00;;;;;;6181182;23;20025;-91
2022/10/08 14:21:36;;;;;;;3.58;1.35;;;26.60;1.00;;;;;;6184135;23;20025;-91
2022/10/08 14:24:25;;;;;;;4.15;1.13;;;26.40;1.00;;;;;;6194928;23;20052;-91
2022/10/08 14:27:14;;;;;;;5.25;1.30;;;26.90;1.00;;;;;;6174289;23;20032;-91
2022/10/08 14:30:04;;;;;;;5.13;1.23;;;26.30;1.00;;;;;;6170510;23;20021;-91
2022/10/08 14:32:52;;;;;;;5.18;1.40;;;26.70;1.00;;;;;;6171101;23;20376;-92
2022/10/08 14:35:39;;;;;;;4.25;1.52;;;26.40;1.00;;;;;;6170224;23;20123;-92
2022/10/08 14:38:31;;;;;;;3.60;1.13;;;26.10;1.00;;;;;;6192877;23;20025;-88
2022/10/08 14:41:18;;;;;;;5.63;1.55;;;24.80;1.00;;;;;;6202613;23;20079;-92
2022/10/08 14:44:08;;;;;;;4.93;1.20;;;25.00;1.00;;;;;;6187815;23;20033;-93
2022/10/08 14:46:55;;;;;;;4.88;1.20;;;25.00;1.00;;;;;;6199359;23;20344;-89
2022/10/08 14:49:42;;;;;;;4.40;1.42;;;23.90;1.00;;;;;;6169267;23;20321;-92
2022/10/08 14:52:30;;;;;;;5.20;1.45;;;22.30;1.00;;;;;;6171290;23;20032;-91
2022/10/08 14:55:17;;;;;;;3.55;1.13;;;22.20;1.00;;;;;;6175063;23;20115;-91
2022/10/08 14:58:05;;;;;;;20.13;14.00;;;22.40;1.00;;;;;;6171517;23;20112;-92
2022/10/08 15:01:01;;;;;;;6.88;1.75;;;22.60;1.00;;;;;;6174473;23;20025;-92
2022/10/08 15:03:51;;;;;;;7.80;1.90;;;23.10;1.00;;;;;;6199134;23;20298;-95